Главная страница
METAR-TAF:

METAR-TAF

Аэропорты :

Кингстон, Онтарио, Канада

широта: 44-13N, долгота: 076-36W, высота над уровнем моря: 93 м

Текущие метеонаблюдения

Эта сводка был подготовлена 19 минут назад, в 02:00 UTC
Ветер 9 Узел от северо-западный
Температура -11°C
Влажность 61%
Давление 1022 hPa
Видимость: 24.1 км
небольшая облачность на высоте 4000 фута

METAR: CYGK 130200Z 31009KT 15SM FEW040 M11/M17 A3018 RMK SC1 SLP229

Время: 21:19 (02:19 UTC)

Прогноз

Эта сводка был подготовлена 41 минут назад, в 01:38 UTC
Прогноз действительный с 13-го 02 UTC до 13-го 04 UTC
Ветер 8 Узел от западно-северо-западный
Видимость: 10 км
небольшая облачность на высоте 4000 фута

TAF: CYGK 130138Z 1302/1304 30008KT P6SM FEW040 RMK NXT FCST WILL BE ISSUED AT 131245Z

Метеонаблюдения и прогнозы для более 4000 аэропортов (сводки METAR и TAF).

Имеющиеся станции представлены на карте желтыми и красными точками.

Чтобы увидеть название станции, наведите на нее мышь.

Затем щелкните, чтобы увидеть метеонаблюдения и метеопрогнозы.

Управление картой: чтобы увеличить масштаб, щелкните зеленые кнопки с черным крестиком; чтобы уменьшить масштаб, щелкните зеленую кнопку с тире; для просмотра соседних карт щелкайте зеленые стрелки.


METAR-TAF: